createdAt,value
2019-06-10T00:00:44.571Z,13.37
2019-06-10T00:05:51.754Z,13.13
2019-06-10T00:10:58.228Z,14.07
2019-06-10T00:16:05.950Z,13.90
2019-06-10T00:21:11.267Z,14.30
2019-06-10T00:26:17.038Z,14.83
2019-06-10T00:31:23.942Z,14.77
2019-06-10T00:36:30.889Z,14.83
2019-06-10T00:41:37.116Z,15.03
2019-06-10T00:46:43.476Z,16.43
2019-06-10T00:51:51.001Z,16.10
2019-06-10T00:56:56.306Z,17.90
2019-06-10T01:02:03.343Z,18.37
2019-06-10T01:07:12.739Z,18.83
2019-06-10T01:12:17.208Z,18.10
2019-06-10T01:17:22.904Z,20.43
2019-06-10T01:22:28.362Z,19.23
2019-06-10T01:27:33.970Z,20.00
2019-06-10T01:32:41.488Z,21.47
2019-06-10T01:37:46.502Z,22.30
2019-06-10T01:42:52.265Z,23.30
2019-06-10T01:47:57.773Z,21.63
2019-06-10T01:53:03.079Z,21.70
2019-06-10T01:58:14.190Z,21.73
2019-06-10T02:03:18.918Z,21.93
2019-06-10T02:08:26.935Z,23.50
2019-06-10T02:13:33.588Z,22.80
2019-06-10T02:18:54.405Z,20.87
2019-06-10T02:23:51.578Z,21.57
2019-06-10T02:28:56.543Z,21.63
2019-06-10T02:34:02.758Z,20.60
2019-06-10T02:39:09.203Z,21.50
2019-06-10T02:44:18.911Z,22.40
2019-06-10T02:49:42.694Z,22.60
2019-06-10T02:54:34.751Z,21.93
2019-06-10T02:59:37.228Z,20.70
2019-06-10T03:04:43.426Z,18.60
2019-06-10T03:09:49.771Z,17.70
2019-06-10T03:14:55.727Z,17.27
2019-06-10T03:20:02.363Z,17.20
2019-06-10T03:25:08.577Z,17.53
2019-06-10T03:30:20.803Z,17.37
2019-06-10T03:35:23.870Z,16.80
2019-06-10T03:40:28.685Z,17.00
2019-06-10T03:45:34.274Z,15.37
2019-06-10T03:50:39.473Z,16.30
2019-06-10T03:55:45.310Z,17.77
2019-06-10T04:00:52.263Z,18.03
2019-06-10T04:05:57.064Z,17.40
2019-06-10T04:11:03.126Z,17.63
2019-06-10T04:16:09.930Z,18.20
2019-06-10T04:21:17.456Z,17.43
2019-06-10T04:26:25.149Z,17.53
2019-06-10T04:31:30.069Z,17.60
2019-06-10T04:36:35.060Z,17.77
2019-06-10T04:41:42.412Z,16.03
2019-06-10T04:46:46.284Z,16.63
2019-06-10T04:51:52.375Z,15.40
2019-06-10T04:56:58.504Z,15.97
2019-06-10T05:02:05.742Z,16.60
2019-06-10T05:07:12.663Z,16.83
2019-06-10T05:12:19.516Z,15.77
2019-06-10T05:17:27.567Z,16.13
2019-06-10T05:22:32.973Z,16.37
2019-06-10T05:27:39.123Z,17.40
2019-06-10T05:32:44.494Z,16.73
2019-06-10T05:37:52.638Z,15.07
2019-06-10T05:42:58.539Z,13.93
2019-06-10T05:48:03.806Z,14.53
2019-06-10T05:53:10.353Z,15.93
2019-06-10T05:58:16.269Z,17.00
2019-06-10T06:03:24.174Z,16.40
2019-06-10T06:08:32.293Z,16.27
2019-06-10T06:13:37.957Z,17.10
2019-06-10T06:18:43.882Z,14.97
2019-06-10T06:23:52.711Z,15.77
2019-06-10T06:28:58.672Z,15.10
2019-06-10T06:34:04.822Z,13.13
2019-06-10T06:39:12.663Z,13.93
2019-06-10T06:44:18.279Z,13.27
2019-06-10T06:49:23.895Z,13.27
2019-06-10T06:54:30.492Z,13.60
2019-06-10T06:59:37.390Z,14.40
2019-06-10T07:04:44.270Z,14.57
2019-06-10T07:09:52.622Z,14.23
2019-06-10T07:14:58.962Z,12.43
2019-06-10T07:20:05.788Z,11.37
2019-06-10T07:25:13.407Z,10.23
2019-06-10T07:30:19.883Z,10.50
2019-06-10T07:35:27.107Z,10.60
2019-06-10T07:40:34.435Z,9.70
2019-06-10T07:45:45.109Z,10.03
2019-06-10T07:50:48.367Z,9.10
2019-06-10T07:55:53.819Z,8.87
2019-06-10T08:01:02.443Z,8.43
2019-06-10T08:06:07.067Z,10.10
2019-06-10T08:11:13.603Z,9.40
2019-06-10T08:16:18.924Z,8.97
2019-06-10T08:21:24.837Z,7.10
2019-06-10T08:26:32.311Z,8.57
2019-06-10T08:31:38.788Z,8.07
2019-06-10T08:36:49.066Z,8.20
2019-06-10T08:41:52.882Z,7.37
2019-06-10T08:46:59.199Z,7.27
2019-06-10T08:52:04.832Z,5.47
2019-06-10T08:57:12.707Z,4.50
2019-06-10T09:02:18.123Z,5.00
2019-06-10T09:07:23.947Z,4.60
2019-06-10T09:12:57.235Z,4.60
2019-06-10T09:18:02.730Z,4.33
2019-06-10T09:23:21.685Z,4.37
2019-06-10T09:28:16.568Z,4.50
2019-06-10T09:33:23.078Z,5.00
2019-06-10T09:38:28.429Z,4.30
2019-06-10T09:43:34.086Z,4.53
2019-06-10T09:48:41.238Z,4.43
2019-06-10T09:53:56.343Z,4.40
2019-06-10T09:58:55.389Z,4.50
2019-06-10T10:04:01.399Z,4.50
2019-06-10T10:09:09.763Z,4.53
2019-06-10T10:14:17.337Z,4.50
2019-06-10T10:19:26.879Z,4.70
2019-06-10T10:24:35.011Z,5.40
2019-06-10T10:29:44.575Z,4.93
2019-06-10T10:34:51.458Z,4.77
2019-06-10T10:39:57.947Z,5.40
2019-06-10T10:45:04.375Z,5.90
2019-06-10T10:50:09.975Z,6.80
2019-06-10T10:55:16.632Z,7.17
2019-06-10T11:00:22.690Z,10.03
2019-06-10T11:05:36.442Z,9.37
2019-06-10T11:10:45.289Z,19.73
2019-06-10T11:15:54.041Z,5.83
2019-06-10T11:21:00.388Z,5.27
2019-06-10T11:26:03.932Z,5.90
2019-06-10T11:31:09.862Z,6.00
2019-06-10T11:36:16.120Z,5.83
2019-06-10T11:41:23.729Z,5.20
2019-06-10T11:46:32.337Z,5.70
2019-06-10T11:51:37.857Z,6.53
2019-06-10T11:56:43.301Z,5.90
2019-06-10T12:01:50.308Z,6.40
2019-06-10T12:06:57.100Z,6.07
2019-06-10T12:12:02.720Z,6.27
2019-06-10T12:17:32.708Z,6.30
2019-06-10T12:22:15.257Z,6.70
2019-06-10T12:27:20.874Z,6.93
2019-06-10T12:32:26.218Z,7.33
2019-06-10T12:37:33.879Z,7.80
2019-06-10T12:42:39.239Z,7.00
2019-06-10T12:47:45.010Z,7.63
2019-06-10T12:52:52.299Z,8.00
2019-06-10T12:57:57.787Z,7.27
2019-06-10T13:03:05.028Z,6.97
2019-06-10T13:08:13.214Z,6.70
2019-06-10T13:13:19.289Z,6.97
2019-06-10T13:18:25.460Z,6.33
2019-06-10T13:23:34.920Z,5.83
2019-06-10T13:28:37.976Z,5.57
2019-06-10T13:33:44.045Z,5.63
2019-06-10T13:38:49.884Z,5.70
2019-06-10T13:43:55.679Z,5.40
2019-06-10T13:49:04.432Z,3.87
2019-06-10T13:54:09.674Z,4.00
2019-06-10T13:59:16.419Z,4.00
2019-06-10T14:04:25.782Z,4.40
2019-06-10T14:09:30.407Z,4.37
2019-06-10T14:14:35.739Z,4.50
2019-06-10T14:19:43.270Z,5.00
2019-06-10T14:24:49.708Z,5.03
2019-06-10T14:29:56.137Z,5.30
2019-06-10T14:35:03.474Z,6.20
2019-06-10T14:40:13.205Z,5.83
2019-06-10T14:45:16.982Z,6.33
2019-06-10T14:50:23.162Z,6.50
2019-06-10T14:55:28.869Z,9.53
2019-06-10T15:00:35.173Z,6.93
2019-06-10T15:05:43.175Z,6.53
2019-06-10T15:10:52.140Z,6.53
2019-06-10T15:15:56.939Z,6.37
2019-06-10T15:21:02.831Z,5.97
2019-06-10T15:26:09.907Z,6.20
2019-06-10T15:31:16.781Z,6.40
2019-06-10T15:36:23.524Z,6.50
2019-06-10T15:41:28.372Z,6.40
2019-06-10T15:46:33.916Z,6.63
2019-06-10T15:51:39.413Z,6.90
2019-06-10T15:56:51.958Z,8.23
2019-06-10T16:01:53.051Z,6.33
2019-06-10T16:06:59.573Z,7.50
2019-06-10T16:12:05.358Z,6.83
2019-06-10T16:17:12.935Z,7.40
2019-06-10T16:22:19.545Z,5.63
2019-06-10T16:27:43.461Z,6.50
2019-06-10T16:32:33.112Z,6.80
2019-06-10T16:37:37.863Z,6.60
2019-06-10T16:42:43.663Z,6.43
2019-06-10T16:47:49.615Z,17.07
2019-06-10T16:52:55.161Z,10.97
2019-06-10T16:58:02.781Z,44.93
2019-06-10T17:03:09.914Z,12.97
2019-06-10T17:08:15.699Z,6.70
2019-06-10T17:13:24.005Z,6.50
2019-06-10T17:18:33.359Z,6.70
2019-06-10T17:23:39.386Z,6.83
2019-06-10T17:28:45.614Z,6.87
2019-06-10T17:33:53.174Z,7.57
2019-06-10T17:38:58.843Z,7.83
2019-06-10T17:44:05.034Z,8.27
2019-06-10T17:49:10.191Z,8.90
2019-06-10T17:54:16.332Z,9.47
2019-06-10T17:59:23.778Z,9.10
2019-06-10T18:04:29.742Z,8.17
2019-06-10T18:09:37.066Z,8.37
2019-06-10T18:14:43.029Z,8.00
2019-06-10T18:19:48.529Z,8.40
2019-06-10T18:24:54.940Z,9.90
2019-06-10T18:30:10.416Z,10.03
2019-06-10T18:35:11.350Z,11.43
2019-06-10T18:40:17.123Z,10.43
2019-06-10T18:45:22.739Z,10.23
2019-06-10T18:56:45.578Z,10.83
2019-06-10T19:01:52.657Z,2.50
2019-06-10T19:06:59.105Z,2.33
2019-06-10T19:23:39.730Z,5.03
2019-06-10T19:28:46.375Z,5.37
2019-06-10T19:33:53.251Z,4.83
2019-06-10T19:38:59.109Z,5.43
2019-06-10T19:44:04.854Z,5.77
2019-06-10T19:49:13.137Z,5.60
2019-06-10T19:54:18.319Z,5.70
2019-06-10T19:59:24.331Z,4.60
2019-06-10T20:04:29.934Z,4.57
2019-06-10T20:09:35.994Z,4.80
2019-06-10T23:49:06.542Z,6.87
2019-06-10T23:54:12.763Z,6.70
2019-06-10T23:59:18.212Z,7.07
